GIJÓN CAMPUS, ASTURIAS

latitud = 43° 31' 23''N | Longitud = 005° 37' 16''W
26 metros sobre el nivel del mar | datos mensuales

Fecha, hora, temperatura, viento dirección y velocidad, humedad y presión.

  • 16-07-2018 13:00:00 | 22.40°C | Norte |13.00 km/h | 67.00% | 1017.80 hPa
  • 16-07-2018 12:00:00 | 21.80°C | Oeste |12.00 km/h | 67.00% | 1017.80 hPa
  • 16-07-2018 11:00:00 | 20.60°C | Oeste |13.00 km/h | 72.00% | 0.00 hPa
  • 16-07-2018 10:00:00 | 20.80°C | Oeste |10.00 km/h | 76.00% | 0.00 hPa
  • 16-07-2018 09:00:00 | 19.30°C | Sudoeste |5.00 km/h | 85.00% | 0.00 hPa
  • 16-07-2018 08:00:00 | 17.60°C | Sur |5.00 km/h | 93.00% | 0.00 hPa
  • 16-07-2018 07:00:00 | 17.90°C | Sudoeste |4.00 km/h | 90.00% | 0.00 hPa
  • 16-07-2018 06:00:00 | 17.60°C | Sudoeste |3.00 km/h | 92.00% | 0.00 hPa
  • 16-07-2018 05:00:00 | 17.80°C | Sudoeste |3.00 km/h | 92.00% | 0.00 hPa
  • 16-07-2018 04:00:00 | 17.90°C | Sur |6.00 km/h | 92.00% | 0.00 hPa
  • 16-07-2018 03:00:00 | 18.60°C | Oeste |6.00 km/h | 91.00% | 0.00 hPa
  • 16-07-2018 02:00:00 | 18.40°C | Sudoeste |4.00 km/h | 94.00% | 0.00 hPa
  • 16-07-2018 01:00:00 | 18.40°C | Sudoeste |5.00 km/h | 95.00% | 0.00 hPa
  • 16-07-2018 00:00:00 | 18.30°C | Sur |5.00 km/h | 96.00% | 0.00 hPa
  • 15-07-2018 23:00:00 | 18.60°C | Sur |4.00 km/h | 96.00% | 0.00 hPa
  • 15-07-2018 22:00:00 | 19.40°C | Oeste |6.00 km/h | 93.00% | 0.00 hPa
  • 15-07-2018 21:00:00 | 20.00°C | Sudoeste |4.00 km/h | 92.00% | 0.00 hPa
  • 15-07-2018 20:00:00 | 19.90°C | Sur |4.00 km/h | 94.00% | 0.00 hPa
  • 15-07-2018 19:00:00 | 20.50°C | Sudoeste |7.00 km/h | 85.00% | 0.00 hPa
  • 15-07-2018 18:00:00 | 21.60°C | Oeste |9.00 km/h | 79.00% | 0.00 hPa
  • 15-07-2018 17:00:00 | 21.80°C | Noroeste |8.00 km/h | 81.00% | 0.00 hPa
  • 15-07-2018 16:00:00 | 22.30°C | Noroeste |9.00 km/h | 78.00% | 0.00 hPa
  • 15-07-2018 15:00:00 | 22.30°C | Noroeste |15.00 km/h | 81.00% | 0.00 hPa
  • 15-07-2018 14:00:00 | 22.80°C | Noroeste |8.00 km/h | 76.00% | 0.00 hPa
    • Gijón hora a hora, datos reales de la temperatura, viento dirección, velocidad, más la humedad relativa y presión atmosférica.
      La estación meteorológica del Campus de Viesques de Gijón hora a hora, mes a mes, año a año; presentada de una forma gráfica, datos recogidos desde el mes de enero del año 2014. Recomendamos un ordenador de sobremesa: https://meteorologia.tike10.com/asturias-gijon.php